createdAt,value
2018-12-19T00:00:05.691Z,29.7
2018-12-19T00:02:05.971Z,29.5
2018-12-19T00:04:05.802Z,29.4
2018-12-19T00:06:07.194Z,29.6
2018-12-19T00:08:05.978Z,29.5
2018-12-19T00:10:05.077Z,29.3
2018-12-19T00:12:08.274Z,29.1
2018-12-19T00:14:05.193Z,29.1
2018-12-19T00:16:05.903Z,29.2
2018-12-19T00:18:08.304Z,29.2
2018-12-19T00:20:14.769Z,29.2
2018-12-19T00:22:05.706Z,29.2
2018-12-19T00:24:06.730Z,29.2
2018-12-19T00:26:06.203Z,29.5
2018-12-19T00:28:11.014Z,29.5
2018-12-19T00:30:05.782Z,29.5
2018-12-19T00:32:06.071Z,29.5
2018-12-19T00:34:06.194Z,29.6
2018-12-19T00:36:06.122Z,29.3
2018-12-19T00:38:11.391Z,29.1
2018-12-19T00:40:13.030Z,28.9
2018-12-19T00:42:05.324Z,28.9
2018-12-19T00:44:05.527Z,28.8
2018-12-19T00:46:06.027Z,28.5
2018-12-19T00:48:05.687Z,28.7
2018-12-19T00:50:10.968Z,28.5
2018-12-19T00:52:07.808Z,28.5
2018-12-19T00:54:15.634Z,28.3
2018-12-19T00:56:05.538Z,28.2
2018-12-19T00:58:08.375Z,27.9
2018-12-19T01:00:08.280Z,27.7
2018-12-19T01:02:05.845Z,27.5
2018-12-19T01:04:06.028Z,27.2
2018-12-19T01:06:14.040Z,26.8
2018-12-19T01:08:21.478Z,26.7
2018-12-19T01:10:08.397Z,40.2
2018-12-19T01:12:06.732Z,39.8
2018-12-19T01:14:05.554Z,38.8
2018-12-19T01:16:08.750Z,39
2018-12-19T01:18:06.753Z,39.5
2018-12-19T01:20:05.534Z,38.6
2018-12-19T01:22:08.791Z,40.1
2018-12-19T01:24:05.173Z,40.1
2018-12-19T01:26:05.875Z,40
2018-12-19T01:28:05.803Z,39.4
2018-12-19T01:30:05.745Z,25.1
2018-12-19T01:32:06.611Z,25.5
2018-12-19T01:34:08.618Z,25
2018-12-19T01:36:06.125Z,24.8
2018-12-19T01:38:08.347Z,25.6
2018-12-19T01:40:06.028Z,25.6
2018-12-19T01:42:05.862Z,25.1
2018-12-19T01:44:06.374Z,25.3
2018-12-19T01:46:08.823Z,29
2018-12-19T01:48:06.277Z,28.9
2018-12-19T01:50:06.670Z,28.7
2018-12-19T01:52:08.795Z,28.6
2018-12-19T01:54:05.389Z,28.5
2018-12-19T01:56:05.956Z,28.3
2018-12-19T01:58:23.284Z,28.2
2018-12-19T02:00:13.058Z,27.9
2018-12-19T02:02:30.594Z,28.2
2018-12-19T02:04:07.648Z,28.2
2018-12-19T02:06:08.006Z,27.9
2018-12-19T02:08:05.912Z,27.9
2018-12-19T02:10:08.770Z,27.6
2018-12-19T02:12:06.300Z,27.5
2018-12-19T02:14:10.867Z,27.4
2018-12-19T02:16:06.354Z,27.5
2018-12-19T02:18:06.069Z,28
2018-12-19T02:20:05.652Z,28.2
2018-12-19T02:22:22.587Z,27.9
2018-12-19T02:24:11.034Z,28.1
2018-12-19T02:26:28.826Z,28.3
2018-12-19T02:28:08.661Z,28.2
2018-12-19T02:30:09.198Z,28.8
2018-12-19T02:32:05.634Z,28.8
2018-12-19T02:34:07.174Z,28.6
2018-12-19T02:36:06.979Z,28.3
2018-12-19T02:38:06.939Z,28.6
2018-12-19T02:40:05.786Z,28.2
2018-12-19T02:42:05.879Z,28.4
2018-12-19T02:44:08.898Z,28.1
2018-12-19T02:46:08.046Z,28.2
2018-12-19T02:48:08.741Z,28.2
2018-12-19T02:50:05.676Z,28.2
2018-12-19T02:52:08.300Z,28.2
2018-12-19T02:54:09.368Z,28.5
2018-12-19T02:56:13.015Z,28.5
2018-12-19T02:58:08.918Z,28.7
2018-12-19T03:00:25.655Z,28.9
2018-12-19T03:02:14.729Z,28.9
2018-12-19T03:04:09.547Z,27.5
2018-12-19T03:06:06.956Z,27.5
2018-12-19T03:08:06.449Z,27.5
2018-12-19T03:10:11.961Z,27.5
2018-12-19T03:12:06.076Z,27.5
2018-12-19T03:14:06.310Z,27.2
2018-12-19T03:16:05.753Z,32
2018-12-19T03:18:11.472Z,40.8
2018-12-19T03:20:06.173Z,37
2018-12-19T03:22:07.075Z,26.2
2018-12-19T03:24:05.682Z,25.1
2018-12-19T03:26:06.349Z,25.4
2018-12-19T03:28:07.452Z,25.7
2018-12-19T03:30:15.853Z,25.9
2018-12-19T03:32:11.939Z,25.8
2018-12-19T03:34:10.701Z,25.8
2018-12-19T03:36:11.997Z,25.8
2018-12-19T03:38:06.704Z,25.7
2018-12-19T03:40:10.750Z,26
2018-12-19T03:42:11.944Z,25.8
2018-12-19T03:44:13.102Z,25.7
2018-12-19T03:46:19.744Z,25.7
2018-12-19T03:48:06.297Z,26
2018-12-19T03:50:06.976Z,25.8
2018-12-19T03:52:07.129Z,26.1
2018-12-19T03:54:05.930Z,26
2018-12-19T03:56:05.596Z,26.4
2018-12-19T03:58:05.820Z,26.2
2018-12-19T04:00:05.891Z,26
2018-12-19T04:02:05.319Z,26.3
2018-12-19T04:04:05.696Z,26.4
2018-12-19T04:06:06.179Z,26.5
2018-12-19T04:08:08.494Z,26.3
2018-12-19T04:10:21.963Z,26.4
2018-12-19T04:12:08.103Z,26.5
2018-12-19T04:14:16.628Z,26.5
2018-12-19T04:16:07.915Z,26.4
2018-12-19T04:18:06.102Z,26.2
2018-12-19T04:20:15.944Z,26.5
2018-12-19T04:22:11.100Z,26.3
2018-12-19T04:24:08.615Z,26.3
2018-12-19T04:26:18.356Z,26.6
2018-12-19T04:28:10.345Z,26.7
2018-12-19T04:30:05.536Z,26.8
2018-12-19T04:32:18.426Z,26.7
2018-12-19T04:34:05.729Z,26.7
2018-12-19T04:36:05.979Z,26.8
2018-12-19T04:38:05.536Z,26.4
2018-12-19T04:40:06.760Z,26.8
2018-12-19T04:42:12.941Z,26.9
2018-12-19T04:44:10.480Z,26.8
2018-12-19T04:46:11.501Z,26.8
2018-12-19T04:48:06.683Z,27
2018-12-19T04:50:06.320Z,27
2018-12-19T04:52:05.982Z,27.1
2018-12-19T04:54:05.828Z,27
2018-12-19T04:56:11.424Z,27
2018-12-19T04:58:23.265Z,27
2018-12-19T05:00:17.428Z,27.1
2018-12-19T05:02:05.539Z,27.1
2018-12-19T05:04:11.634Z,27.1
2018-12-19T05:06:05.566Z,27.1
2018-12-19T05:08:05.963Z,27.1
2018-12-19T05:10:15.673Z,27.2
2018-12-19T05:12:06.424Z,27.2
2018-12-19T05:14:06.227Z,27.2
2018-12-19T05:16:05.805Z,27.3
2018-12-19T05:18:06.196Z,27.3
2018-12-19T05:20:10.750Z,27.3
2018-12-19T05:22:11.181Z,27.4
2018-12-19T05:24:05.629Z,27.5
2018-12-19T05:26:09.010Z,27.3
2018-12-19T05:28:06.429Z,27.3
2018-12-19T05:30:08.940Z,27.4
2018-12-19T05:32:05.450Z,27.4
2018-12-19T05:34:14.960Z,27.6
2018-12-19T05:36:07.772Z,27.5
2018-12-19T05:38:13.915Z,27.5
2018-12-19T05:40:22.094Z,27.6
2018-12-19T05:42:05.911Z,27.6
2018-12-19T05:44:17.159Z,27.7
2018-12-19T05:46:10.059Z,27.7
2018-12-19T05:48:08.605Z,27.5
2018-12-19T05:50:09.406Z,27.6
2018-12-19T05:52:07.876Z,27.9
2018-12-19T05:54:06.392Z,27.6
2018-12-19T05:56:05.990Z,27.7
2018-12-19T05:58:05.947Z,27.7
2018-12-19T06:00:05.709Z,27.6
2018-12-19T06:02:05.717Z,27.8
2018-12-19T06:04:06.349Z,28.2
2018-12-19T06:06:05.659Z,28.1
2018-12-19T06:08:07.880Z,28.3
2018-12-19T06:10:06.065Z,28.3
2018-12-19T06:12:05.950Z,28.3
2018-12-19T06:14:06.160Z,28.4
2018-12-19T06:16:06.134Z,28.4
2018-12-19T06:18:05.919Z,28.6
2018-12-19T06:20:10.769Z,28.7
2018-12-19T06:22:09.876Z,28.7
2018-12-19T06:24:12.846Z,28.8
2018-12-19T06:26:36.688Z,28.8
2018-12-19T06:28:11.282Z,28.9
2018-12-19T06:30:19.262Z,28.9
2018-12-19T06:32:12.075Z,28.9
2018-12-19T06:34:06.438Z,28.9
2018-12-19T06:36:06.104Z,29
2018-12-19T06:38:08.288Z,29.2
2018-12-19T06:40:05.804Z,29.2
2018-12-19T06:42:06.636Z,29.2
2018-12-19T06:44:11.387Z,29.2
2018-12-19T06:46:05.660Z,29.2
2018-12-19T06:48:08.410Z,29.2
2018-12-19T06:50:13.331Z,29.2
2018-12-19T06:52:08.490Z,29.1
2018-12-19T06:54:12.091Z,29.1
2018-12-19T06:56:13.620Z,29.1
2018-12-19T06:58:06.224Z,29.1
2018-12-19T07:00:06.247Z,29.2
2018-12-19T07:02:05.584Z,29.2
2018-12-19T07:04:06.174Z,29.2
2018-12-19T07:06:08.668Z,29.4
2018-12-19T07:08:07.392Z,29.4
2018-12-19T07:10:07.201Z,29.4
2018-12-19T07:12:12.830Z,29.4
2018-12-19T07:14:09.625Z,29.4
2018-12-19T07:16:14.077Z,29.4
2018-12-19T07:18:12.339Z,29.3
2018-12-19T07:20:06.197Z,29.5
2018-12-19T07:22:06.009Z,29.5
2018-12-19T07:24:05.584Z,29.4
2018-12-19T07:26:06.131Z,29.4
2018-12-19T07:28:05.561Z,29.4
2018-12-19T07:30:06.092Z,29.4
2018-12-19T07:32:05.501Z,29.6
2018-12-19T07:34:08.475Z,29.5
2018-12-19T07:36:06.253Z,29.5
2018-12-19T07:38:05.523Z,29.6
2018-12-19T07:40:05.860Z,29.6
2018-12-19T07:42:06.125Z,29.7
2018-12-19T07:44:05.852Z,29.7
2018-12-19T07:46:05.333Z,29.7
2018-12-19T07:48:05.835Z,29.9
2018-12-19T07:50:06.198Z,30
2018-12-19T07:52:05.632Z,30
2018-12-19T07:54:08.465Z,30
2018-12-19T07:56:08.391Z,30.1
2018-12-19T07:58:05.723Z,30.1
2018-12-19T08:00:06.332Z,30
2018-12-19T08:02:06.049Z,30
2018-12-19T08:04:05.907Z,30
2018-12-19T08:06:05.414Z,30
2018-12-19T08:08:05.936Z,30
2018-12-19T08:10:05.318Z,29.8
2018-12-19T08:12:05.697Z,30
2018-12-19T08:14:05.822Z,29.9
2018-12-19T08:16:06.559Z,29.9
2018-12-19T08:18:11.484Z,29.9
2018-12-19T08:20:11.007Z,29.8
2018-12-19T08:22:06.684Z,29.8
2018-12-19T08:24:05.172Z,29.8
2018-12-19T08:26:05.221Z,29.9
2018-12-19T08:28:13.331Z,29.8
2018-12-19T08:30:10.831Z,29.8
2018-12-19T08:32:05.565Z,29.8
2018-12-19T08:34:08.075Z,29.8
2018-12-19T08:36:05.542Z,29.8
2018-12-19T08:38:05.733Z,29.7
2018-12-19T08:40:06.074Z,29.7
2018-12-19T08:42:05.324Z,29.7
2018-12-19T08:44:10.558Z,29.8
2018-12-19T08:46:06.066Z,29.6
2018-12-19T08:48:05.925Z,29.7
2018-12-19T08:50:08.263Z,29.6
2018-12-19T08:52:08.129Z,29.6
2018-12-19T08:54:05.762Z,29.6
2018-12-19T08:56:05.794Z,29.6
2018-12-19T08:58:05.712Z,29.6
2018-12-19T09:00:06.207Z,29.6
2018-12-19T09:02:05.447Z,29.5
2018-12-19T09:04:05.958Z,29.5
2018-12-19T09:06:08.617Z,29.6
2018-12-19T09:08:06.421Z,29.6
2018-12-19T09:10:05.702Z,29.6
2018-12-19T09:12:05.708Z,29.5
2018-12-19T09:14:10.450Z,29.7
2018-12-19T09:16:07.644Z,29.7
2018-12-19T09:18:11.555Z,29.7
2018-12-19T09:20:08.038Z,29.8
2018-12-19T09:22:08.056Z,29.6
2018-12-19T09:24:05.206Z,29.8
2018-12-19T09:26:10.174Z,29.7
2018-12-19T09:28:05.149Z,29.7
2018-12-19T09:30:05.812Z,29.6
2018-12-19T09:32:09.064Z,29.7
2018-12-19T09:34:05.263Z,29.7
2018-12-19T09:36:05.526Z,29.6
2018-12-19T09:38:05.278Z,29.7
2018-12-19T09:40:05.958Z,29.7
2018-12-19T09:42:08.178Z,29.6
2018-12-19T09:44:05.883Z,29.6
2018-12-19T09:46:06.013Z,29.5
2018-12-19T09:48:05.820Z,29.5
2018-12-19T09:50:05.508Z,29.5
2018-12-19T09:52:05.212Z,29.5
2018-12-19T09:54:06.931Z,29.5
2018-12-19T09:56:05.619Z,29.5
2018-12-19T09:58:05.337Z,29.5
2018-12-19T10:00:07.529Z,29.3
2018-12-19T10:02:07.778Z,29.4
2018-12-19T10:04:05.470Z,29.3
2018-12-19T10:06:05.253Z,29.3
2018-12-19T10:08:08.498Z,29.3
2018-12-19T10:10:05.157Z,29.3
2018-12-19T10:12:05.792Z,29.3
2018-12-19T10:14:10.534Z,29.3
2018-12-19T10:16:05.218Z,29.3
2018-12-19T10:18:05.126Z,29.2
2018-12-19T10:20:05.338Z,29.3
2018-12-19T10:22:05.078Z,29.3
2018-12-19T10:24:05.734Z,29.2
2018-12-19T10:26:05.392Z,29.3
2018-12-19T10:28:05.106Z,29.3
2018-12-19T10:30:05.837Z,29.3
2018-12-19T10:32:13.188Z,29.1
2018-12-19T10:34:05.900Z,29.1
2018-12-19T10:36:10.626Z,29.1
2018-12-19T10:38:05.336Z,29.1
2018-12-19T10:40:12.602Z,29.1
2018-12-19T10:42:05.325Z,29.1
2018-12-19T10:44:05.543Z,29.1
2018-12-19T10:46:07.758Z,29.2
2018-12-19T10:48:05.990Z,29.2
2018-12-19T10:50:05.681Z,29.2
2018-12-19T10:52:05.501Z,29.2
2018-12-19T10:54:07.753Z,29
2018-12-19T10:56:07.977Z,29.2
2018-12-19T10:58:05.669Z,29.2
2018-12-19T11:00:05.352Z,29
2018-12-19T11:02:05.167Z,29.2
2018-12-19T11:04:05.851Z,29.2
2018-12-19T11:06:05.036Z,29.2
2018-12-19T11:08:08.243Z,29.2
2018-12-19T11:10:07.986Z,29
2018-12-19T11:12:05.670Z,29
2018-12-19T11:14:07.960Z,29.2
2018-12-19T11:16:05.274Z,29
2018-12-19T11:18:10.204Z,29.1
2018-12-19T11:20:05.515Z,29.1
2018-12-19T11:22:05.201Z,29.1
2018-12-19T11:24:06.146Z,29.1
2018-12-19T11:26:05.823Z,29.2
2018-12-19T11:28:08.034Z,29.2
2018-12-19T11:30:05.796Z,29.2
2018-12-19T11:32:05.073Z,29.3
2018-12-19T11:34:08.271Z,29.2
2018-12-19T11:36:10.664Z,29.1
2018-12-19T11:38:05.407Z,29.1
2018-12-19T11:40:10.776Z,29.1
2018-12-19T11:42:07.976Z,29
2018-12-19T11:44:05.664Z,29.2
2018-12-19T11:46:05.325Z,29.4
2018-12-19T11:48:06.075Z,29.9
2018-12-19T11:50:05.876Z,29.3
2018-12-19T11:52:05.576Z,29.4
2018-12-19T11:54:07.798Z,29.6
2018-12-19T11:56:05.507Z,29.6
2018-12-19T11:58:05.698Z,29.8
2018-12-19T12:00:06.861Z,29.6
2018-12-19T12:02:08.153Z,29.5
2018-12-19T12:04:05.863Z,29.5
2018-12-19T12:06:10.604Z,29.4
2018-12-19T12:08:05.372Z,29.4
2018-12-19T12:10:07.539Z,29.3
2018-12-19T12:12:07.744Z,29
2018-12-19T12:14:05.443Z,29.1
2018-12-19T12:16:05.171Z,29
2018-12-19T12:18:07.652Z,29
2018-12-19T12:20:05.332Z,29
2018-12-19T12:22:08.383Z,28.9
2018-12-19T12:24:05.554Z,28.9
2018-12-19T12:26:05.385Z,28.9
2018-12-19T12:28:05.184Z,28.7
2018-12-19T12:30:05.819Z,28.8
2018-12-19T12:32:05.061Z,28.6
2018-12-19T12:34:05.735Z,28.9
2018-12-19T12:36:05.572Z,29.1
2018-12-19T12:38:05.527Z,29.2
2018-12-19T12:40:08.175Z,29
2018-12-19T12:42:10.882Z,29.1
2018-12-19T12:44:05.685Z,29.1
2018-12-19T12:46:05.383Z,29
2018-12-19T12:48:07.695Z,29.1
2018-12-19T12:50:05.415Z,29.1
2018-12-19T12:52:07.703Z,29.1
2018-12-19T12:54:05.467Z,29.1
2018-12-19T12:56:05.231Z,29.1
2018-12-19T12:58:05.897Z,29
2018-12-19T13:00:08.130Z,29.1
2018-12-19T13:02:05.360Z,29.1
2018-12-19T13:04:05.025Z,29.1
2018-12-19T13:06:10.838Z,29
2018-12-19T13:08:05.625Z,29
2018-12-19T13:10:05.272Z,29
2018-12-19T13:12:05.935Z,29
2018-12-19T13:14:05.679Z,28.9
2018-12-19T13:16:05.389Z,28.9
2018-12-19T13:18:05.289Z,28.9
2018-12-19T13:20:05.072Z,28.7
2018-12-19T13:22:05.768Z,28.9
2018-12-19T13:24:05.573Z,28.9
2018-12-19T13:26:05.389Z,28.9
2018-12-19T13:28:05.108Z,28.9
2018-12-19T13:30:05.893Z,28.8
2018-12-19T13:32:10.638Z,28.7
2018-12-19T13:34:05.347Z,28.7
2018-12-19T13:36:05.106Z,28.8
2018-12-19T13:38:07.854Z,28.7
2018-12-19T13:40:05.696Z,28.7
2018-12-19T13:42:08.503Z,28.8
2018-12-19T13:44:05.197Z,28.8
2018-12-19T13:46:05.861Z,28.8
2018-12-19T13:48:05.590Z,28.8
2018-12-19T13:50:05.341Z,28.8
2018-12-19T13:52:05.043Z,28.7
2018-12-19T13:54:05.299Z,28.8
2018-12-19T13:56:08.533Z,28.7
2018-12-19T13:58:07.616Z,28.7
2018-12-19T14:00:05.351Z,28.7
2018-12-19T14:02:07.595Z,28.7
2018-12-19T14:04:05.294Z,28.7
2018-12-19T14:06:05.990Z,28.7
2018-12-19T14:08:11.047Z,28.7
2018-12-19T14:10:10.788Z,28.7
2018-12-19T14:12:12.791Z,28.7
2018-12-19T14:14:08.038Z,28.7
2018-12-19T14:16:08.246Z,28.7
2018-12-19T14:18:05.270Z,28.7
2018-12-19T14:20:06.033Z,28.7
2018-12-19T14:22:05.757Z,28.8
2018-12-19T14:24:05.964Z,28.6
2018-12-19T14:26:05.654Z,28.8
2018-12-19T14:28:05.420Z,28.8
2018-12-19T14:30:07.622Z,28.8
2018-12-19T14:32:05.318Z,28.6
2018-12-19T14:34:04.991Z,28.7
2018-12-19T14:36:05.630Z,28.7
2018-12-19T14:38:05.350Z,28.8
2018-12-19T14:40:05.642Z,28.8
2018-12-19T14:42:05.607Z,28.8
2018-12-19T14:44:05.318Z,28.8
2018-12-19T14:46:05.048Z,28.8
2018-12-19T14:48:05.715Z,28.7
2018-12-19T14:50:05.378Z,28.9
2018-12-19T14:52:05.040Z,28.8
2018-12-19T14:54:05.200Z,28.8
2018-12-19T14:56:05.865Z,28.8
2018-12-19T14:58:08.073Z,28.7
2018-12-19T15:00:05.763Z,28.7
2018-12-19T15:02:05.565Z,28.7
2018-12-19T15:04:08.387Z,28.7
2018-12-19T15:06:05.154Z,28.7
2018-12-19T15:08:05.946Z,28.8
2018-12-19T15:10:05.617Z,28.6
2018-12-19T15:12:05.323Z,28.6
2018-12-19T15:14:05.481Z,28.6
2018-12-19T15:16:05.153Z,28.7
2018-12-19T15:18:10.149Z,28.6
2018-12-19T15:20:05.809Z,28.6
2018-12-19T15:22:05.713Z,28.6
2018-12-19T15:24:05.455Z,28.6
2018-12-19T15:26:07.725Z,28.7
2018-12-19T15:28:05.447Z,28.7
2018-12-19T15:30:05.755Z,28.7
2018-12-19T15:32:05.959Z,28.6
2018-12-19T15:34:05.681Z,28.6
2018-12-19T15:36:05.421Z,28.7
2018-12-19T15:38:05.702Z,28.7
2018-12-19T15:40:07.883Z,28.7
2018-12-19T15:42:05.744Z,28.7
2018-12-19T15:44:05.401Z,28.7
2018-12-19T15:46:05.082Z,28.7
2018-12-19T15:48:11.019Z,28.7
2018-12-19T15:50:10.789Z,28.8
2018-12-19T15:52:05.476Z,28.7
2018-12-19T15:54:05.221Z,28.7
2018-12-19T15:56:05.912Z,28.6
2018-12-19T15:58:05.653Z,28.6
2018-12-19T16:00:05.849Z,28.6
2018-12-19T16:02:05.133Z,28.7
2018-12-19T16:04:05.867Z,28.6
2018-12-19T16:06:08.114Z,28.7
2018-12-19T16:08:06.462Z,28.7
2018-12-19T16:10:05.188Z,28.6
2018-12-19T16:12:05.909Z,28.6
2018-12-19T16:14:05.613Z,28.7
2018-12-19T16:16:05.897Z,28.6
2018-12-19T16:18:07.852Z,28.7
2018-12-19T16:20:05.596Z,28.7
2018-12-19T16:22:05.355Z,28.7
2018-12-19T16:24:05.094Z,28.7
2018-12-19T16:26:05.851Z,28.7
2018-12-19T16:28:05.049Z,28.7
2018-12-19T16:30:05.375Z,28.8
2018-12-19T16:32:07.620Z,28.7
2018-12-19T16:34:05.539Z,28.7
2018-12-19T16:36:07.971Z,28.6
2018-12-19T16:38:05.690Z,28.8
2018-12-19T16:40:05.386Z,28.8
2018-12-19T16:42:05.575Z,28.7
2018-12-19T16:44:05.281Z,28.7
2018-12-19T16:46:04.990Z,28.7
2018-12-19T16:48:07.888Z,28.7
2018-12-19T16:50:10.185Z,28.7
2018-12-19T16:52:05.867Z,28.7
2018-12-19T16:54:05.557Z,28.6
2018-12-19T16:56:10.267Z,28.6
2018-12-19T16:58:05.501Z,28.6
2018-12-19T17:00:05.193Z,28.8
2018-12-19T17:02:05.922Z,28.7
2018-12-19T17:04:05.593Z,28.7
2018-12-19T17:06:05.816Z,28.7
2018-12-19T17:08:05.114Z,28.6
2018-12-19T17:10:06.119Z,28.6
2018-12-19T17:12:05.777Z,28.6
2018-12-19T17:14:05.452Z,28.8
2018-12-19T17:16:05.136Z,28.7
2018-12-19T17:18:05.161Z,28.5
2018-12-19T17:20:10.955Z,28.5
2018-12-19T17:22:05.121Z,28.7
2018-12-19T17:24:05.841Z,28.5
2018-12-19T17:26:05.499Z,28.6
2018-12-19T17:28:05.160Z,28.7
2018-12-19T17:30:05.836Z,28.5
2018-12-19T17:32:05.571Z,28.6
2018-12-19T17:34:05.281Z,28.6
2018-12-19T17:36:05.969Z,28.7
2018-12-19T17:38:05.892Z,28.6
2018-12-19T17:40:08.110Z,28.6
2018-12-19T17:42:05.841Z,28.7
2018-12-19T17:44:05.555Z,28.7
2018-12-19T17:46:05.780Z,28.7
2018-12-19T17:48:05.440Z,28.6
2018-12-19T17:50:07.669Z,28.6
2018-12-19T17:52:05.363Z,28.5
2018-12-19T17:54:05.550Z,28.5
2018-12-19T17:56:05.301Z,28.5
2018-12-19T17:58:06.001Z,28.6
2018-12-19T18:00:08.221Z,28.5
2018-12-19T18:02:05.934Z,28.5
2018-12-19T18:04:07.747Z,28.7
2018-12-19T18:06:05.941Z,28.7
2018-12-19T18:08:08.250Z,28.6
2018-12-19T18:10:08.041Z,28.7
2018-12-19T18:12:05.724Z,28.7
2018-12-19T18:14:05.424Z,28.7
2018-12-19T18:16:05.120Z,28.7
2018-12-19T18:18:05.617Z,28.8
2018-12-19T18:20:07.862Z,28.8
2018-12-19T18:22:05.544Z,28.8
2018-12-19T18:24:05.246Z,28.7
2018-12-19T18:26:05.423Z,28.7
2018-12-19T18:28:05.093Z,28.8
2018-12-19T18:30:05.861Z,28.9
2018-12-19T18:32:05.507Z,28.7
2018-12-19T18:34:10.754Z,28.7
2018-12-19T18:36:05.449Z,28.7
2018-12-19T18:38:05.154Z,28.7
2018-12-19T18:40:05.856Z,28.7
2018-12-19T18:42:05.062Z,28.6
2018-12-19T18:44:05.786Z,28.7
2018-12-19T18:46:05.480Z,28.7
2018-12-19T18:48:05.171Z,28.8
2018-12-19T18:50:08.376Z,28.6
2018-12-19T18:52:05.063Z,28.6
2018-12-19T18:54:05.267Z,28.8
2018-12-19T18:56:05.948Z,28.6
2018-12-19T18:58:05.633Z,28.7
2018-12-19T19:00:05.929Z,28.7
2018-12-19T19:02:08.269Z,28.7
2018-12-19T19:04:05.099Z,28.5
2018-12-19T19:06:05.598Z,28.7
2018-12-19T19:08:05.458Z,28.7
2018-12-19T19:10:10.240Z,28.6
2018-12-19T19:12:05.903Z,28.6
2018-12-19T19:14:05.428Z,28.6
2018-12-19T19:16:07.619Z,28.5
2018-12-19T19:18:05.509Z,28.5
2018-12-19T19:20:05.255Z,28.5
2018-12-19T19:22:10.503Z,28.6
2018-12-19T19:24:05.181Z,28.6
2018-12-19T19:26:05.840Z,28.7
2018-12-19T19:28:07.965Z,28.5
2018-12-19T19:30:13.207Z,28.6
2018-12-19T19:32:05.902Z,28.6
2018-12-19T19:34:13.169Z,28.6
2018-12-19T19:36:05.577Z,28.6
2018-12-19T19:38:05.572Z,28.6
2018-12-19T19:40:07.783Z,28.8
2018-12-19T19:42:06.036Z,28.8
2018-12-19T19:44:05.870Z,29
2018-12-19T19:46:05.551Z,29
2018-12-19T19:48:05.776Z,29.2
2018-12-19T19:50:05.524Z,29.2
2018-12-19T19:52:05.211Z,29.5
2018-12-19T19:54:16.047Z,29.9
2018-12-19T19:56:05.682Z,29.9
2018-12-19T19:58:08.364Z,30.3
2018-12-19T20:00:05.034Z,30.2
2018-12-19T20:02:05.712Z,30.3
2018-12-19T20:04:10.507Z,30.3
2018-12-19T20:06:05.750Z,30.6
2018-12-19T20:08:05.554Z,30.5
2018-12-19T20:10:05.282Z,30.5
2018-12-19T20:12:05.097Z,30.5
2018-12-19T20:14:05.790Z,30.6
2018-12-19T20:16:05.420Z,30.6
2018-12-19T20:18:05.901Z,30.5
2018-12-19T20:20:05.124Z,30.4
2018-12-19T20:22:06.094Z,30.6
2018-12-19T20:24:08.493Z,30.5
2018-12-19T20:26:05.212Z,30.5
2018-12-19T20:28:06.047Z,30.4
2018-12-19T20:30:05.726Z,30.2
2018-12-19T20:32:07.995Z,30
2018-12-19T20:34:05.692Z,30
2018-12-19T20:36:08.483Z,29.8
2018-12-19T20:38:05.185Z,29.8
2018-12-19T20:40:05.880Z,29.7
2018-12-19T20:42:05.552Z,29.7
2018-12-19T20:44:05.292Z,29.6
2018-12-19T20:46:06.072Z,29.7
2018-12-19T20:48:06.020Z,29.7
2018-12-19T20:50:08.333Z,29.7
2018-12-19T20:52:04.987Z,29.7
2018-12-19T20:54:06.269Z,29.5
2018-12-19T20:56:05.084Z,29.5
2018-12-19T20:58:05.846Z,29.5
2018-12-19T21:00:05.690Z,29.6
2018-12-19T21:02:05.363Z,29.6
2018-12-19T21:04:05.107Z,29.4
2018-12-19T21:06:05.831Z,29.5
2018-12-19T21:08:05.535Z,29.6
2018-12-19T21:10:05.491Z,29.6
2018-12-19T21:12:05.187Z,29.5
2018-12-19T21:14:05.442Z,29.6
2018-12-19T21:16:05.127Z,29.6
2018-12-19T21:18:05.027Z,29.7
2018-12-19T21:20:05.286Z,29.7
2018-12-19T21:22:05.486Z,29.6
2018-12-19T21:24:05.161Z,29.6
2018-12-19T21:26:05.863Z,29.7
2018-12-19T21:28:10.242Z,29.6
2018-12-19T21:30:07.874Z,29.5
2018-12-19T21:32:08.095Z,29.8
2018-12-19T21:34:05.850Z,29.8
2018-12-19T21:36:05.072Z,29.8
2018-12-19T21:38:05.799Z,29.6
2018-12-19T21:40:09.306Z,29.8
2018-12-19T21:42:07.562Z,29.8
2018-12-19T21:44:07.796Z,29.8
2018-12-19T21:46:05.588Z,29.8
2018-12-19T21:48:05.250Z,29.6
2018-12-19T21:50:06.016Z,29.8
2018-12-19T21:52:10.840Z,29.8
2018-12-19T21:54:05.098Z,29.8
2018-12-19T21:56:05.802Z,29.7
2018-12-19T21:58:07.588Z,29.8
2018-12-19T22:00:05.447Z,29.7
2018-12-19T22:02:05.214Z,29.8
2018-12-19T22:04:08.779Z,29.6
2018-12-19T22:06:05.778Z,29.6
2018-12-19T22:08:08.111Z,29.7
2018-12-19T22:10:11.007Z,29.7
2018-12-19T22:12:05.059Z,29.7
2018-12-19T22:14:08.546Z,29.7
2018-12-19T22:16:10.255Z,29.7
2018-12-19T22:18:05.414Z,29.7
2018-12-19T22:20:15.466Z,29.5
2018-12-19T22:22:07.827Z,29.5
2018-12-19T22:24:05.707Z,29.6
2018-12-19T22:26:05.442Z,29.3
2018-12-19T22:28:05.323Z,29.3
2018-12-19T22:30:05.153Z,29.5
2018-12-19T22:32:05.946Z,29.5
2018-12-19T22:34:05.097Z,29.4
2018-12-19T22:36:05.953Z,29.3
2018-12-19T22:38:05.713Z,29.3
2018-12-19T22:40:05.633Z,29.3
2018-12-19T22:42:09.503Z,29.3
2018-12-19T22:44:08.549Z,29.3
2018-12-19T22:46:05.387Z,29.4
2018-12-19T22:48:10.360Z,29.3
2018-12-19T22:50:05.109Z,29.3
2018-12-19T22:52:05.882Z,29.3
2018-12-19T22:54:05.801Z,29.3
2018-12-19T22:56:05.791Z,29.4
2018-12-19T22:58:12.624Z,29.4
2018-12-19T23:00:05.108Z,29.2
2018-12-19T23:02:05.870Z,29.2
2018-12-19T23:04:08.243Z,29.3
2018-12-19T23:06:05.560Z,29.3
2018-12-19T23:08:09.069Z,29.2
2018-12-19T23:10:06.087Z,29.2
2018-12-19T23:12:13.341Z,29.2
2018-12-19T23:14:05.176Z,29.2
2018-12-19T23:16:06.056Z,29.1
2018-12-19T23:18:13.168Z,29.2
2018-12-19T23:20:06.027Z,29.2
2018-12-19T23:22:07.571Z,29.2
2018-12-19T23:24:05.583Z,29.2
2018-12-19T23:26:13.412Z,29.2
2018-12-19T23:28:05.422Z,29.2
2018-12-19T23:30:07.878Z,29.1
2018-12-19T23:32:05.895Z,29.1
2018-12-19T23:34:05.110Z,29
2018-12-19T23:36:06.043Z,29
2018-12-19T23:38:05.906Z,29
2018-12-19T23:40:05.352Z,29
2018-12-19T23:42:06.161Z,29
2018-12-19T23:44:05.344Z,29
2018-12-19T23:46:05.094Z,29
2018-12-19T23:48:05.797Z,28.9
2018-12-19T23:50:05.256Z,29
2018-12-19T23:52:07.753Z,29
2018-12-19T23:54:05.713Z,29
2018-12-19T23:56:08.141Z,29
2018-12-19T23:58:05.588Z,28.9
